createdAt,value
2022-12-27T00:00:11.745Z,7.20
2022-12-27T00:02:43.881Z,7.00
2022-12-27T00:05:13.668Z,7.10
2022-12-27T00:07:42.861Z,7.00
2022-12-27T00:10:13.772Z,6.80
2022-12-27T00:12:42.937Z,6.70
2022-12-27T00:15:12.053Z,6.70
2022-12-27T00:17:41.727Z,6.60
2022-12-27T00:20:12.174Z,6.70
2022-12-27T00:22:41.573Z,6.70
2022-12-27T00:25:13.289Z,6.60
2022-12-27T00:27:42.619Z,6.60
2022-12-27T00:30:12.731Z,6.60
2022-12-27T00:32:42.037Z,6.50
2022-12-27T00:35:11.668Z,6.50
2022-12-27T00:37:40.777Z,6.50
2022-12-27T00:40:11.626Z,6.50
2022-12-27T00:42:42.205Z,6.50
2022-12-27T00:45:12.485Z,6.40
2022-12-27T00:47:41.722Z,6.30
2022-12-27T00:50:11.313Z,6.30
2022-12-27T00:52:40.356Z,6.20
2022-12-27T00:55:11.090Z,6.20
2022-12-27T00:57:42.000Z,6.10
2022-12-27T01:00:12.472Z,6.10
2022-12-27T01:02:41.916Z,6.00
2022-12-27T01:05:10.929Z,6.00
2022-12-27T01:07:41.106Z,6.00
2022-12-27T01:10:10.761Z,5.90
2022-12-27T01:12:41.780Z,5.90
2022-12-27T01:15:11.740Z,5.90
2022-12-27T01:17:40.834Z,5.90
2022-12-27T01:20:10.631Z,5.90
2022-12-27T01:22:39.699Z,5.80
2022-12-27T01:25:09.372Z,5.80
2022-12-27T01:27:38.534Z,5.80
2022-12-27T01:30:11.139Z,5.70
2022-12-27T01:32:40.173Z,5.60
2022-12-27T01:35:09.826Z,5.60
2022-12-27T01:37:39.063Z,5.50
2022-12-27T01:40:09.721Z,5.40
2022-12-27T01:42:52.375Z,5.20
2022-12-27T01:45:24.289Z,5.20
2022-12-27T01:48:00.566Z,5.10
2022-12-27T01:50:35.020Z,5.10
2022-12-27T01:53:09.787Z,4.90
2022-12-27T01:55:44.146Z,4.70
2022-12-27T01:58:16.333Z,4.60
2022-12-27T02:00:49.511Z,4.60
2022-12-27T02:03:23.620Z,4.60
2022-12-27T02:05:53.365Z,4.60
2022-12-27T02:08:33.985Z,4.60
2022-12-27T02:11:04.253Z,4.60
2022-12-27T02:13:36.281Z,4.70
2022-12-27T02:16:14.310Z,4.70
2022-12-27T02:18:43.725Z,4.90
2022-12-27T02:21:47.519Z,4.90
2022-12-27T02:24:45.052Z,5.00
2022-12-27T02:27:25.421Z,5.00
2022-12-27T02:30:01.308Z,5.10
2022-12-27T02:32:34.772Z,5.10
2022-12-27T02:35:13.598Z,5.00
2022-12-27T02:37:48.861Z,5.00
2022-12-27T02:40:37.692Z,5.00
2022-12-27T02:43:24.893Z,5.00
2022-12-27T02:46:21.939Z,5.00
2022-12-27T02:49:13.565Z,4.90
2022-12-27T02:52:12.291Z,5.00
2022-12-27T02:55:02.945Z,5.00
2022-12-27T02:57:40.570Z,5.00
2022-12-27T03:00:32.336Z,5.00
2022-12-27T03:03:42.628Z,5.10
2022-12-27T03:06:51.988Z,5.00
2022-12-27T03:09:56.749Z,5.00
2022-12-27T03:12:58.348Z,5.00
2022-12-27T03:15:57.105Z,5.10
2022-12-27T03:18:59.379Z,5.10
2022-12-27T03:21:50.276Z,5.10
2022-12-27T03:24:39.751Z,5.10
2022-12-27T03:27:18.443Z,5.10
2022-12-27T03:30:10.962Z,5.10
2022-12-27T03:33:02.150Z,5.10
2022-12-27T03:35:35.892Z,5.10
2022-12-27T03:38:05.891Z,5.10
2022-12-27T03:41:06.373Z,5.10
2022-12-27T03:43:35.164Z,5.10
2022-12-27T03:46:39.045Z,5.10
2022-12-27T03:49:16.869Z,5.10
2022-12-27T03:51:51.544Z,5.20
2022-12-27T03:54:26.591Z,5.10
2022-12-27T03:56:57.639Z,5.10
2022-12-27T03:59:27.972Z,5.10
2022-12-27T04:01:57.872Z,5.20
2022-12-27T04:04:27.154Z,5.10
2022-12-27T04:06:57.801Z,5.10
2022-12-27T04:09:43.913Z,5.10
2022-12-27T04:12:30.980Z,5.10
2022-12-27T04:15:16.814Z,5.20
2022-12-27T04:18:05.196Z,5.10
2022-12-27T04:20:52.112Z,5.10
2022-12-27T04:23:40.042Z,5.10
2022-12-27T04:26:26.252Z,5.10
2022-12-27T04:29:12.137Z,5.10
2022-12-27T04:31:58.503Z,5.10
2022-12-27T04:34:45.562Z,5.10
2022-12-27T04:37:16.523Z,5.10
2022-12-27T04:40:10.220Z,5.10
2022-12-27T04:42:56.663Z,5.10
2022-12-27T04:45:42.965Z,5.00
2022-12-27T04:48:31.299Z,5.10
2022-12-27T04:51:20.637Z,5.00
2022-12-27T04:54:07.119Z,5.00
2022-12-27T04:56:37.860Z,5.00
2022-12-27T04:59:23.909Z,5.00
2022-12-27T05:02:05.340Z,5.00
2022-12-27T05:04:38.051Z,5.00
2022-12-27T05:07:22.401Z,5.00
2022-12-27T05:10:08.997Z,5.00
2022-12-27T05:12:56.787Z,5.00
2022-12-27T05:15:25.848Z,5.00
2022-12-27T05:17:55.073Z,5.00
2022-12-27T05:20:24.107Z,4.90
2022-12-27T05:23:10.215Z,5.00
2022-12-27T05:25:42.361Z,4.90
2022-12-27T05:28:13.776Z,4.90
2022-12-27T05:30:44.292Z,4.90
2022-12-27T05:33:13.451Z,4.80
2022-12-27T05:35:42.679Z,4.90
2022-12-27T05:38:11.888Z,4.90
2022-12-27T05:40:40.909Z,4.80
2022-12-27T05:43:10.135Z,4.80
2022-12-27T05:45:40.893Z,4.80
2022-12-27T05:48:09.935Z,4.80
2022-12-27T05:50:38.830Z,4.70
2022-12-27T05:53:14.651Z,4.60
2022-12-27T05:55:43.721Z,4.60
2022-12-27T05:58:12.878Z,4.60
2022-12-27T06:00:43.405Z,4.50
2022-12-27T06:03:12.668Z,4.50
2022-12-27T06:05:41.949Z,4.40
2022-12-27T06:08:11.538Z,4.40
2022-12-27T06:10:40.284Z,4.30
2022-12-27T06:13:09.644Z,4.30
2022-12-27T06:15:38.902Z,4.20
2022-12-27T06:18:09.833Z,4.10
2022-12-27T06:20:39.084Z,4.00
2022-12-27T06:23:08.244Z,4.00
2022-12-27T06:25:39.484Z,3.90
2022-12-27T06:28:08.604Z,3.90
2022-12-27T06:30:37.768Z,3.80
2022-12-27T06:33:06.828Z,3.70
2022-12-27T06:35:37.607Z,3.60
2022-12-27T06:38:06.685Z,3.60
2022-12-27T06:40:35.699Z,3.50
2022-12-27T06:43:04.796Z,3.50
2022-12-27T06:45:34.114Z,3.40
2022-12-27T06:48:03.505Z,3.40
2022-12-27T06:50:32.521Z,3.40
2022-12-27T06:53:05.495Z,3.40
2022-12-27T06:55:34.464Z,3.40
2022-12-27T06:58:03.997Z,3.40
2022-12-27T07:00:32.993Z,3.40
2022-12-27T07:03:02.255Z,3.40
2022-12-27T07:05:31.383Z,3.40
2022-12-27T07:08:02.818Z,3.40
2022-12-27T07:10:31.977Z,3.40
2022-12-27T07:13:00.920Z,3.40
2022-12-27T07:15:29.842Z,3.30
2022-12-27T07:17:58.932Z,3.30
2022-12-27T07:20:28.306Z,3.30
2022-12-27T07:22:58.996Z,3.20
2022-12-27T07:25:29.633Z,3.20
2022-12-27T07:27:58.729Z,3.20
2022-12-27T07:30:29.559Z,3.20
2022-12-27T07:32:58.786Z,3.20
2022-12-27T07:35:27.721Z,3.20
2022-12-27T07:37:57.188Z,3.20
2022-12-27T07:40:26.816Z,3.20
2022-12-27T07:42:57.465Z,3.20
2022-12-27T07:45:26.533Z,3.10
2022-12-27T07:47:55.557Z,3.10
2022-12-27T07:50:24.619Z,3.20
2022-12-27T07:52:53.847Z,3.20
2022-12-27T07:55:22.906Z,3.20
2022-12-27T07:57:52.068Z,3.20
2022-12-27T08:00:23.229Z,3.20
2022-12-27T08:02:52.371Z,3.20
2022-12-27T08:05:25.864Z,3.10
2022-12-27T08:07:57.457Z,3.20
2022-12-27T08:10:26.565Z,3.20
2022-12-27T08:12:55.670Z,3.20
2022-12-27T08:15:26.364Z,3.20
2022-12-27T08:17:55.545Z,3.30
2022-12-27T08:20:24.849Z,3.20
2022-12-27T08:22:54.014Z,3.20
2022-12-27T08:25:23.211Z,3.20
2022-12-27T08:27:52.160Z,3.20
2022-12-27T08:30:21.609Z,3.30
2022-12-27T08:32:52.408Z,3.30
2022-12-27T08:38:11.024Z,3.40
2022-12-27T08:40:42.844Z,3.40
2022-12-27T08:43:12.716Z,3.40
2022-12-27T08:45:41.811Z,3.40
2022-12-27T08:48:12.628Z,3.60
2022-12-27T08:50:42.144Z,3.60
2022-12-27T08:53:12.398Z,3.60
2022-12-27T08:55:41.418Z,3.70
2022-12-27T08:58:16.314Z,3.70
2022-12-27T09:00:45.704Z,3.70
2022-12-27T09:03:18.427Z,3.80
2022-12-27T09:05:49.535Z,3.90
2022-12-27T09:08:18.672Z,3.90
2022-12-27T09:10:48.488Z,4.00
2022-12-27T09:13:18.201Z,4.10
2022-12-27T09:15:47.510Z,4.10
2022-12-27T09:18:18.312Z,4.10
2022-12-27T09:20:47.465Z,4.00
2022-12-27T09:23:16.822Z,4.00
2022-12-27T09:25:47.004Z,4.10
2022-12-27T09:28:16.127Z,4.10
2022-12-27T09:30:46.447Z,4.10
2022-12-27T09:33:15.309Z,4.10
2022-12-27T09:35:46.093Z,4.20
2022-12-27T09:38:15.317Z,4.20
2022-12-27T09:40:54.289Z,4.20
2022-12-27T09:43:27.798Z,4.20
2022-12-27T09:46:00.038Z,4.10
2022-12-27T09:48:33.854Z,4.10
2022-12-27T09:51:10.140Z,4.10
2022-12-27T09:53:46.570Z,4.10
2022-12-27T09:56:22.506Z,4.20
2022-12-27T09:58:53.896Z,4.20
2022-12-27T10:01:27.630Z,4.30
2022-12-27T10:03:57.497Z,4.40
2022-12-27T10:07:06.173Z,4.50
2022-12-27T10:10:01.964Z,4.50
2022-12-27T10:12:57.401Z,4.60
2022-12-27T10:15:32.892Z,4.60
2022-12-27T10:18:15.107Z,4.60
2022-12-27T10:20:55.892Z,4.60
2022-12-27T10:23:26.734Z,4.60
2022-12-27T10:26:00.360Z,4.60
2022-12-27T10:28:37.809Z,4.60
2022-12-27T10:31:08.067Z,4.70
2022-12-27T10:33:36.992Z,4.80
2022-12-27T10:36:11.006Z,5.00
2022-12-27T10:38:39.774Z,5.00
2022-12-27T10:41:23.665Z,4.90
2022-12-27T10:43:54.612Z,4.90
2022-12-27T10:46:32.193Z,4.90
2022-12-27T10:51:53.144Z,4.80
2022-12-27T10:54:25.533Z,4.80
2022-12-27T10:56:57.004Z,4.80
2022-12-27T10:59:27.313Z,4.90
2022-12-27T11:02:18.424Z,4.80
2022-12-27T11:05:06.463Z,4.90
2022-12-27T11:07:36.297Z,4.90
2022-12-27T11:10:18.767Z,4.90
2022-12-27T11:13:01.845Z,4.80
2022-12-27T11:15:34.184Z,4.80
2022-12-27T11:18:10.633Z,4.80
2022-12-27T11:20:42.068Z,4.90
2022-12-27T11:23:15.405Z,4.90
2022-12-27T11:25:53.891Z,4.80
2022-12-27T11:28:30.409Z,4.90
2022-12-27T11:31:02.319Z,4.90
2022-12-27T11:33:37.787Z,4.80
2022-12-27T11:36:08.760Z,4.90
2022-12-27T11:38:39.780Z,4.90
2022-12-27T11:41:12.552Z,4.90
2022-12-27T11:43:48.994Z,4.90
2022-12-27T11:46:28.164Z,4.90
2022-12-27T11:48:59.378Z,4.90
2022-12-27T11:51:47.979Z,5.00
2022-12-27T11:54:41.613Z,4.90
2022-12-27T11:57:26.373Z,5.00
2022-12-27T12:00:07.319Z,5.00
2022-12-27T12:03:02.765Z,5.00
2022-12-27T12:06:00.859Z,5.00
2022-12-27T12:09:15.227Z,5.00
2022-12-27T12:12:16.959Z,5.00
2022-12-27T12:15:07.867Z,4.90
2022-12-27T12:17:53.539Z,5.00
2022-12-27T12:20:50.971Z,5.00
2022-12-27T12:23:27.403Z,5.00
2022-12-27T12:26:14.458Z,5.00
2022-12-27T12:29:18.513Z,5.00
2022-12-27T12:32:23.379Z,4.90
2022-12-27T12:35:34.455Z,4.80
2022-12-27T12:38:18.173Z,4.90
2022-12-27T12:41:13.335Z,4.90
2022-12-27T12:44:20.577Z,4.90
2022-12-27T12:46:58.099Z,4.90
2022-12-27T12:49:45.660Z,4.80
2022-12-27T12:52:36.623Z,4.80
2022-12-27T12:55:25.308Z,4.80
2022-12-27T12:58:05.802Z,4.70
2022-12-27T13:00:52.305Z,4.70
2022-12-27T13:03:58.301Z,4.70
2022-12-27T13:06:44.860Z,4.80
2022-12-27T13:09:25.824Z,4.80
2022-12-27T13:12:00.006Z,4.80
2022-12-27T13:14:41.083Z,4.70
2022-12-27T13:17:16.561Z,4.60
2022-12-27T13:20:10.449Z,4.50
2022-12-27T13:22:58.613Z,4.50
2022-12-27T13:25:38.076Z,4.50
2022-12-27T13:28:31.287Z,4.40
2022-12-27T13:31:07.116Z,4.50
2022-12-27T13:33:44.184Z,4.50
2022-12-27T13:36:26.432Z,4.60
2022-12-27T13:39:14.513Z,4.60
2022-12-27T13:41:58.956Z,4.60
2022-12-27T13:44:43.032Z,4.60
2022-12-27T13:47:41.513Z,4.60
2022-12-27T13:50:37.831Z,4.70
2022-12-27T13:53:38.595Z,4.70
2022-12-27T13:56:52.137Z,4.70
2022-12-27T13:59:41.087Z,4.70
2022-12-27T14:02:46.114Z,4.70
2022-12-27T14:05:54.589Z,4.70
2022-12-27T14:08:37.742Z,4.70
2022-12-27T14:11:23.264Z,4.70
2022-12-27T14:13:52.991Z,4.80
2022-12-27T14:16:35.020Z,4.70
2022-12-27T14:19:26.655Z,4.70
2022-12-27T14:22:12.163Z,4.70
2022-12-27T14:25:17.100Z,4.70
2022-12-27T14:28:24.275Z,4.70
2022-12-27T14:31:17.445Z,4.70
2022-12-27T14:34:16.633Z,4.70
2022-12-27T14:37:19.476Z,4.60
2022-12-27T14:40:34.496Z,4.60
2022-12-27T14:43:42.710Z,4.60
2022-12-27T14:46:37.683Z,4.50
2022-12-27T14:49:37.023Z,4.60
2022-12-27T14:52:35.963Z,4.70
2022-12-27T14:55:33.054Z,4.60
2022-12-27T14:58:21.291Z,4.70
2022-12-27T15:01:07.899Z,4.60
2022-12-27T15:03:58.495Z,4.70
2022-12-27T15:06:52.527Z,4.60
2022-12-27T15:09:35.005Z,4.60
2022-12-27T15:12:15.206Z,4.70
2022-12-27T15:14:59.816Z,4.70
2022-12-27T15:17:44.611Z,4.70
2022-12-27T15:20:47.616Z,4.70
2022-12-27T15:23:26.391Z,4.60
2022-12-27T15:26:07.189Z,4.60
2022-12-27T15:28:51.601Z,4.70
2022-12-27T15:31:30.353Z,4.70
2022-12-27T15:34:15.948Z,4.70
2022-12-27T15:36:48.809Z,4.70
2022-12-27T15:39:51.201Z,4.70
2022-12-27T15:42:48.115Z,4.80
2022-12-27T15:45:34.252Z,4.80
2022-12-27T15:48:53.278Z,4.70
2022-12-27T15:51:31.097Z,4.70
2022-12-27T15:54:32.488Z,4.70
2022-12-27T15:57:26.914Z,4.60
2022-12-27T16:00:05.954Z,4.70
2022-12-27T16:02:52.582Z,4.70
2022-12-27T16:05:48.077Z,4.70
2022-12-27T16:08:30.611Z,4.70
2022-12-27T16:11:02.133Z,4.70
2022-12-27T16:13:43.384Z,4.70
2022-12-27T16:16:57.515Z,4.60
2022-12-27T16:19:57.134Z,4.60
2022-12-27T16:22:35.275Z,4.60
2022-12-27T16:25:30.152Z,4.60
2022-12-27T16:28:06.173Z,4.60
2022-12-27T16:30:47.846Z,4.60
2022-12-27T16:33:37.757Z,4.60
2022-12-27T16:36:23.707Z,4.50
2022-12-27T16:39:19.888Z,4.50
2022-12-27T16:42:06.500Z,4.50
2022-12-27T16:44:49.649Z,4.50
2022-12-27T16:47:36.689Z,4.50
2022-12-27T16:50:41.359Z,4.50
2022-12-27T16:53:44.771Z,4.40
2022-12-27T16:56:23.443Z,4.40
2022-12-27T16:58:53.520Z,4.40
2022-12-27T17:01:47.072Z,4.40
2022-12-27T17:04:52.565Z,4.40
2022-12-27T17:07:44.623Z,4.40
2022-12-27T17:10:43.769Z,4.30
2022-12-27T17:13:17.447Z,4.40
2022-12-27T17:15:53.972Z,4.40
2022-12-27T17:18:30.070Z,4.40
2022-12-27T17:21:04.517Z,4.50
2022-12-27T17:23:40.023Z,4.50
2022-12-27T17:26:25.692Z,4.60
2022-12-27T17:29:01.538Z,4.60
2022-12-27T17:31:38.011Z,4.50
2022-12-27T17:34:18.338Z,4.50
2022-12-27T17:36:59.357Z,4.50
2022-12-27T17:39:48.541Z,4.50
2022-12-27T17:42:47.193Z,4.50
2022-12-27T17:45:31.509Z,4.40
2022-12-27T17:48:09.988Z,4.40
2022-12-27T17:50:45.022Z,4.40
2022-12-27T17:53:38.041Z,4.30
2022-12-27T17:56:36.698Z,4.40
2022-12-27T17:59:12.365Z,4.40
2022-12-27T18:01:48.865Z,4.30
2022-12-27T18:04:25.766Z,4.30
2022-12-27T18:07:01.565Z,4.30
2022-12-27T18:09:41.064Z,4.20
2022-12-27T18:12:19.112Z,4.10
2022-12-27T18:14:54.796Z,4.10
2022-12-27T18:17:29.374Z,4.00
2022-12-27T18:19:58.566Z,3.90
2022-12-27T18:22:29.271Z,3.80
2022-12-27T18:24:58.290Z,3.80
2022-12-27T18:27:27.430Z,3.70
2022-12-27T18:29:56.178Z,3.70
2022-12-27T18:32:26.740Z,3.70
2022-12-27T18:34:58.956Z,3.70
2022-12-27T18:37:29.492Z,3.70
2022-12-27T18:40:01.221Z,3.70
2022-12-27T18:42:34.411Z,3.70
2022-12-27T18:45:06.371Z,3.70
2022-12-27T18:47:41.194Z,3.60
2022-12-27T18:50:18.113Z,3.60
2022-12-27T18:52:53.019Z,3.60
2022-12-27T18:55:27.727Z,3.50
2022-12-27T18:58:05.004Z,3.40
2022-12-27T19:00:34.087Z,3.40
2022-12-27T19:03:15.123Z,3.30
2022-12-27T19:06:00.946Z,3.40
2022-12-27T19:08:35.996Z,3.30
2022-12-27T19:11:06.060Z,3.30
2022-12-27T19:13:44.677Z,3.30
2022-12-27T19:16:24.931Z,3.20
2022-12-27T19:18:56.307Z,3.20
2022-12-27T19:21:32.447Z,3.20
2022-12-27T19:24:37.600Z,3.20
2022-12-27T19:27:23.803Z,3.10
2022-12-27T19:29:53.723Z,3.10
2022-12-27T19:32:26.369Z,3.10
2022-12-27T19:34:59.614Z,3.10
2022-12-27T19:37:29.812Z,3.10
2022-12-27T19:39:59.905Z,3.10
2022-12-27T19:42:32.036Z,3.10
2022-12-27T19:45:01.129Z,3.00
2022-12-27T19:47:31.589Z,3.00
2022-12-27T19:50:00.694Z,3.00
2022-12-27T19:52:29.864Z,2.90
2022-12-27T19:55:03.914Z,2.90
2022-12-27T19:57:34.523Z,2.90
2022-12-27T20:00:12.003Z,2.90
2022-12-27T20:02:41.360Z,2.80
2022-12-27T20:05:10.967Z,2.80
2022-12-27T20:07:40.848Z,2.80
2022-12-27T20:10:15.184Z,2.80
2022-12-27T20:12:45.707Z,2.70
2022-12-27T20:15:14.408Z,2.70
2022-12-27T20:17:45.153Z,2.70
2022-12-27T20:20:14.186Z,2.60
2022-12-27T20:22:42.817Z,2.60
2022-12-27T20:25:11.957Z,2.60
2022-12-27T20:27:40.616Z,2.60
2022-12-27T20:30:12.343Z,2.50
2022-12-27T20:32:41.119Z,2.50
2022-12-27T20:35:10.193Z,2.50
2022-12-27T20:37:38.956Z,2.40
2022-12-27T20:40:09.038Z,2.50
2022-12-27T20:42:37.861Z,2.40
2022-12-27T20:45:07.512Z,2.40
2022-12-27T20:47:37.895Z,2.40
2022-12-27T20:50:07.519Z,2.40
2022-12-27T20:52:38.483Z,2.30
2022-12-27T20:55:07.684Z,2.30
2022-12-27T20:57:36.657Z,2.30
2022-12-27T21:00:08.266Z,2.30
2022-12-27T21:02:39.605Z,2.40
2022-12-27T21:05:09.225Z,2.40
2022-12-27T21:07:38.219Z,2.40
2022-12-27T21:10:09.280Z,2.30
2022-12-27T21:12:38.447Z,2.40
2022-12-27T21:15:08.983Z,2.40
2022-12-27T21:17:39.022Z,2.40
2022-12-27T21:20:11.010Z,2.30
2022-12-27T21:22:39.765Z,2.30
2022-12-27T21:25:09.084Z,2.30
2022-12-27T21:27:38.078Z,2.20
2022-12-27T21:30:08.002Z,2.20
2022-12-27T21:32:38.542Z,2.20
2022-12-27T21:35:08.631Z,2.10
2022-12-27T21:37:37.366Z,2.10
2022-12-27T21:40:07.371Z,2.00
2022-12-27T21:42:36.454Z,2.00
2022-12-27T21:45:06.167Z,2.00
2022-12-27T21:47:35.193Z,1.90
2022-12-27T21:50:05.574Z,1.90
2022-12-27T21:52:34.304Z,1.80
2022-12-27T21:55:02.947Z,1.80
2022-12-27T21:57:31.619Z,1.80
2022-12-27T22:00:00.369Z,1.70
2022-12-27T22:02:29.189Z,1.70
2022-12-27T22:04:58.012Z,1.70
2022-12-27T22:07:28.062Z,1.70
2022-12-27T22:09:56.736Z,1.70
2022-12-27T22:12:25.476Z,1.70
2022-12-27T22:14:54.148Z,1.60
2022-12-27T22:17:22.876Z,1.50
2022-12-27T22:19:51.523Z,1.60
2022-12-27T22:22:20.272Z,1.50
2022-12-27T22:24:50.291Z,1.50
2022-12-27T22:27:19.026Z,1.50
2022-12-27T22:29:47.676Z,1.40
2022-12-27T22:32:16.321Z,1.40
2022-12-27T22:34:45.053Z,1.40
2022-12-27T22:37:13.753Z,1.40
2022-12-27T22:39:42.479Z,1.40
2022-12-27T22:42:12.540Z,1.40
2022-12-27T22:44:41.273Z,1.40
2022-12-27T22:47:27.222Z,1.40
2022-12-27T22:49:56.572Z,1.20
2022-12-27T22:52:25.344Z,1.30
2022-12-27T22:55:04.644Z,1.20
2022-12-27T22:57:37.017Z,1.20
2022-12-27T23:00:09.500Z,1.20
2022-12-27T23:02:38.264Z,1.30
2022-12-27T23:05:08.050Z,1.20
2022-12-27T23:08:05.183Z,1.30
2022-12-27T23:10:25.669Z,1.20
2022-12-27T23:12:57.216Z,1.30
2022-12-27T23:15:25.975Z,1.30
2022-12-27T23:17:54.640Z,1.30
2022-12-27T23:20:23.372Z,1.30
2022-12-27T23:22:52.020Z,1.30
2022-12-27T23:25:20.695Z,1.30
2022-12-27T23:27:49.433Z,1.30
2022-12-27T23:30:19.561Z,1.30
2022-12-27T23:32:48.608Z,1.20
2022-12-27T23:35:17.574Z,1.30
2022-12-27T23:37:46.232Z,1.20
2022-12-27T23:40:15.275Z,1.20
2022-12-27T23:42:43.928Z,1.20
2022-12-27T23:45:12.767Z,1.20
2022-12-27T23:47:42.860Z,1.20
2022-12-27T23:50:15.823Z,1.20
2022-12-27T23:52:47.789Z,1.20
2022-12-27T23:55:16.536Z,1.20
2022-12-27T23:57:45.234Z,1.20
